aviador You're here:

KMYJ Decoded Metar

in
Report Time2017-07-21 06:35:00
UTC Time2017-07-21 08:33:26
Flight Rules Old
WindCalm
Visibility9999 m
Phenomena:N/A
Clouds:N/A
Expected CloudBase > 1,200 ft AGL from Temp-Dew spread
CeilingNone
Temp25°C
Dew Point22°C (83% RH)
QNH1015 hPa
Raw Report
KMYJ 210635Z AUTO 00000KT 7SM CLR 25/22 A2998 RMK AO2=

Extra information for KMYJ:More info

Social comments